sensor_id;sensor_type;location;lat;lon;timestamp;pressure;altitude;pressure_sealevel;temperature;humidity
75188;BME280;63762;51.334;22.108;2022-11-15T00:06:01;102172.04;;;7.93;75.57
75188;BME280;63762;51.334;22.108;2022-11-15T00:16:04;102168.27;;;7.97;75.46
75188;BME280;63762;51.334;22.108;2022-11-15T00:26:13;102167.90;;;7.86;75.84
75188;BME280;63762;51.334;22.108;2022-11-15T00:36:15;102171.76;;;7.99;75.37
75188;BME280;63762;51.334;22.108;2022-11-15T00:46:22;102148.14;;;8.07;75.14
75188;BME280;63762;51.334;22.108;2022-11-15T00:56:29;102146.09;;;7.94;75.75
75188;BME280;63762;51.334;22.108;2022-11-15T01:06:37;102143.79;;;8.05;75.41
75188;BME280;63762;51.334;22.108;2022-11-15T01:16:44;102122.78;;;8.14;75.07
75188;BME280;63762;51.334;22.108;2022-11-15T01:26:51;102109.78;;;8.25;74.65
75188;BME280;63762;51.334;22.108;2022-11-15T01:36:58;102102.23;;;7.96;75.00
75188;BME280;63762;51.334;22.108;2022-11-15T01:47:12;102089.60;;;7.61;76.21
75188;BME280;63762;51.334;22.108;2022-11-15T01:57:15;102068.30;;;7.58;76.18
75188;BME280;63762;51.334;22.108;2022-11-15T02:07:21;102065.91;;;7.52;76.71
75188;BME280;63762;51.334;22.108;2022-11-15T02:37:56;102026.62;;;7.71;75.87
75188;BME280;63762;51.334;22.108;2022-11-15T02:47:59;102037.00;;;7.40;77.22
75188;BME280;63762;51.334;22.108;2022-11-15T03:08:26;102003.41;;;7.15;77.75
75188;BME280;63762;51.334;22.108;2022-11-15T03:18:32;101993.10;;;7.06;77.95
75188;BME280;63762;51.334;22.108;2022-11-15T03:28:41;101988.22;;;7.15;77.65
75188;BME280;63762;51.334;22.108;2022-11-15T03:38:44;101979.66;;;7.07;78.25
75188;BME280;63762;51.334;22.108;2022-11-15T03:48:52;101974.45;;;7.04;78.54
75188;BME280;63762;51.334;22.108;2022-11-15T03:58:55;101955.57;;;7.07;78.27
75188;BME280;63762;51.334;22.108;2022-11-15T04:08:56;101941.32;;;7.07;78.64
75188;BME280;63762;51.334;22.108;2022-11-15T04:18:57;101930.33;;;6.94;79.45
75188;BME280;63762;51.334;22.108;2022-11-15T04:29:10;101907.31;;;6.71;79.94
75188;BME280;63762;51.334;22.108;2022-11-15T04:39:23;101911.84;;;6.69;80.31
75188;BME280;63762;51.334;22.108;2022-11-15T04:49:24;101899.08;;;6.56;80.65
75188;BME280;63762;51.334;22.108;2022-11-15T04:59:25;101887.10;;;6.64;80.41
75188;BME280;63762;51.334;22.108;2022-11-15T05:09:28;101885.30;;;6.65;80.28
75188;BME280;63762;51.334;22.108;2022-11-15T05:19:35;101864.46;;;6.53;80.69
75188;BME280;63762;51.334;22.108;2022-11-15T05:29:42;101879.65;;;6.52;80.94
75188;BME280;63762;51.334;22.108;2022-11-15T05:39:49;101869.13;;;6.68;80.02
75188;BME280;63762;51.334;22.108;2022-11-15T05:49:57;101860.40;;;6.44;80.34
75188;BME280;63762;51.334;22.108;2022-11-15T06:00:05;101850.72;;;6.42;80.14
75188;BME280;63762;51.334;22.108;2022-11-15T06:10:11;101841.17;;;6.36;80.26
75188;BME280;63762;51.334;22.108;2022-11-15T06:20:18;101844.33;;;6.06;80.83
75188;BME280;63762;51.334;22.108;2022-11-15T06:30:26;101842.30;;;5.91;81.38
75188;BME280;63762;51.334;22.108;2022-11-15T06:40:36;101857.81;;;6.03;80.80
75188;BME280;63762;51.334;22.108;2022-11-15T06:50:39;101857.81;;;6.03;81.20
75188;BME280;63762;51.334;22.108;2022-11-15T07:00:46;101867.62;;;6.22;80.43
75188;BME280;63762;51.334;22.108;2022-11-15T07:10:54;101862.09;;;6.07;80.21
75188;BME280;63762;51.334;22.108;2022-11-15T07:21:04;101851.86;;;5.75;81.89
75188;BME280;63762;51.334;22.108;2022-11-15T07:31:08;101856.05;;;6.02;81.65
75188;BME280;63762;51.334;22.108;2022-11-15T07:41:15;101852.13;;;6.30;80.81
75188;BME280;63762;51.334;22.108;2022-11-15T07:51:23;101860.93;;;6.32;80.66
75188;BME280;63762;51.334;22.108;2022-11-15T08:01:29;101848.70;;;6.47;80.70
75188;BME280;63762;51.334;22.108;2022-11-15T08:11:36;101842.02;;;6.57;79.88
75188;BME280;63762;51.334;22.108;2022-11-15T08:21:43;101822.13;;;6.44;80.86
75188;BME280;63762;51.334;22.108;2022-11-15T08:31:50;101820.46;;;6.60;79.95
75188;BME280;63762;51.334;22.108;2022-11-15T08:41:58;101816.73;;;6.64;79.92
75188;BME280;63762;51.334;22.108;2022-11-15T08:52:05;101819.41;;;6.64;80.35
75188;BME280;63762;51.334;22.108;2022-11-15T09:02:13;101817.37;;;6.69;80.20
75188;BME280;63762;51.334;22.108;2022-11-15T09:12:19;101806.71;;;6.88;79.96
75188;BME280;63762;51.334;22.108;2022-11-15T09:22:26;101783.38;;;7.08;79.44
75188;BME280;63762;51.334;22.108;2022-11-15T09:32:33;101789.33;;;7.15;79.47
75188;BME280;63762;51.334;22.108;2022-11-15T09:52:55;101755.56;;;7.12;78.81
75188;BME280;63762;51.334;22.108;2022-11-15T10:13:16;101724.01;;;7.36;78.35
75188;BME280;63762;51.334;22.108;2022-11-15T10:23:21;101712.38;;;7.54;78.23
75188;BME280;63762;51.334;22.108;2022-11-15T10:33:33;101702.87;;;7.48;77.61
75188;BME280;63762;51.334;22.108;2022-11-15T10:43:35;101676.71;;;7.70;78.55
75188;BME280;63762;51.334;22.108;2022-11-15T10:53:43;101662.88;;;7.95;77.70
75188;BME280;63762;51.334;22.108;2022-11-15T11:14:11;101641.02;;;8.02;77.04
75188;BME280;63762;51.334;22.108;2022-11-15T11:24:16;101629.27;;;8.20;76.82
75188;BME280;63762;51.334;22.108;2022-11-15T11:54:59;101586.48;;;8.65;75.41
75188;BME280;63762;51.334;22.108;2022-11-15T12:05:13;101580.06;;;8.68;75.09
75188;BME280;63762;51.334;22.108;2022-11-15T12:15:29;101567.78;;;8.79;75.47
75188;BME280;63762;51.334;22.108;2022-11-15T12:35:41;101531.48;;;8.88;74.05
75188;BME280;63762;51.334;22.108;2022-11-15T12:45:44;101524.53;;;9.13;73.82
75188;BME280;63762;51.334;22.108;2022-11-15T13:06:00;101507.30;;;9.46;73.70
75188;BME280;63762;51.334;22.108;2022-11-15T13:16:01;101491.76;;;9.37;72.75
75188;BME280;63762;51.334;22.108;2022-11-15T13:36:22;101474.68;;;9.52;72.64
75188;BME280;63762;51.334;22.108;2022-11-15T13:46:28;101467.59;;;9.51;72.98
75188;BME280;63762;51.334;22.108;2022-11-15T13:56:31;101482.63;;;9.67;72.15
75188;BME280;63762;51.334;22.108;2022-11-15T14:06:43;101469.12;;;9.55;71.39
75188;BME280;63762;51.334;22.108;2022-11-15T14:16:46;101474.68;;;9.24;72.57
75188;BME280;63762;51.334;22.108;2022-11-15T14:26:47;101463.20;;;9.22;72.40
75188;BME280;63762;51.334;22.108;2022-11-15T14:36:49;101452.73;;;9.17;71.57
75188;BME280;63762;51.334;22.108;2022-11-15T14:46:50;101448.40;;;9.00;72.34
75188;BME280;63762;51.334;22.108;2022-11-15T14:56:51;101450.48;;;8.81;71.39
75188;BME280;63762;51.334;22.108;2022-11-15T15:06:52;101445.44;;;8.47;71.93
75188;BME280;63762;51.334;22.108;2022-11-15T15:16:53;101404.48;;;8.14;72.30
75188;BME280;63762;51.334;22.108;2022-11-15T15:26:54;101420.28;;;7.89;72.54
75188;BME280;63762;51.334;22.108;2022-11-15T15:47:11;101405.02;;;7.60;72.65
75188;BME280;63762;51.334;22.108;2022-11-15T15:57:13;101410.25;;;7.46;72.48
75188;BME280;63762;51.334;22.108;2022-11-15T16:07:21;101405.77;;;7.31;72.54
75188;BME280;63762;51.334;22.108;2022-11-15T16:17:26;101408.16;;;7.20;72.42
75188;BME280;63762;51.334;22.108;2022-11-15T16:27:28;101390.16;;;7.07;72.88
75188;BME280;63762;51.334;22.108;2022-11-15T16:37:33;101380.09;;;6.96;73.16
75188;BME280;63762;51.334;22.108;2022-11-15T16:47:40;101381.85;;;6.80;74.68
75188;BME280;63762;51.334;22.108;2022-11-15T16:57:47;101386.09;;;6.84;75.73
75188;BME280;63762;51.334;22.108;2022-11-15T17:07:55;101378.59;;;6.90;76.42
75188;BME280;63762;51.334;22.108;2022-11-15T17:18:01;101364.80;;;6.98;77.67
75188;BME280;63762;51.334;22.108;2022-11-15T17:28:09;101357.56;;;7.00;78.03
75188;BME280;63762;51.334;22.108;2022-11-15T17:38:15;101352.92;;;7.04;78.63
75188;BME280;63762;51.334;22.108;2022-11-15T17:48:22;101361.54;;;7.09;79.11
75188;BME280;63762;51.334;22.108;2022-11-15T17:58:30;101341.09;;;7.08;79.66
75188;BME280;63762;51.334;22.108;2022-11-15T18:08:39;101337.38;;;7.10;80.03
75188;BME280;63762;51.334;22.108;2022-11-15T18:18:44;101320.81;;;7.19;79.91
75188;BME280;63762;51.334;22.108;2022-11-15T18:28:52;101317.62;;;7.28;80.10
75188;BME280;63762;51.334;22.108;2022-11-15T18:39:00;101314.41;;;7.37;79.48
75188;BME280;63762;51.334;22.108;2022-11-15T18:49:07;101332.89;;;7.26;79.79
75188;BME280;63762;51.334;22.108;2022-11-15T18:59:13;101338.33;;;7.25;80.30
75188;BME280;63762;51.334;22.108;2022-11-15T19:09:20;101326.15;;;7.35;80.01
75188;BME280;63762;51.334;22.108;2022-11-15T19:19:27;101309.43;;;7.31;80.17
75188;BME280;63762;51.334;22.108;2022-11-15T19:29:34;101301.29;;;7.48;79.88
75188;BME280;63762;51.334;22.108;2022-11-15T19:39:41;101280.83;;;7.47;79.62
75188;BME280;63762;51.334;22.108;2022-11-15T19:49:48;101282.72;;;7.45;79.77
75188;BME280;63762;51.334;22.108;2022-11-15T19:59:55;101284.78;;;7.40;79.79
75188;BME280;63762;51.334;22.108;2022-11-15T20:13:11;101268.38;;;7.46;79.46
75188;BME280;63762;51.334;22.108;2022-11-15T20:23:18;101256.30;;;7.39;79.41
75188;BME280;63762;51.334;22.108;2022-11-15T20:33:26;101253.14;;;7.33;79.41
75188;BME280;63762;51.334;22.108;2022-11-15T20:43:32;101253.75;;;7.22;79.75
75188;BME280;63762;51.334;22.108;2022-11-15T20:53:40;101253.84;;;7.21;79.91
75188;BME280;63762;51.334;22.108;2022-11-15T21:03:46;101258.83;;;7.11;79.83
75188;BME280;63762;51.334;22.108;2022-11-15T21:13:54;101254.42;;;7.26;79.49
75188;BME280;63762;51.334;22.108;2022-11-15T21:24:06;101253.39;;;7.28;79.19
75188;BME280;63762;51.334;22.108;2022-11-15T21:34:08;101246.56;;;7.23;79.63
75188;BME280;63762;51.334;22.108;2022-11-15T21:44:15;101239.14;;;7.28;79.42
75188;BME280;63762;51.334;22.108;2022-11-15T21:54:22;101245.89;;;7.19;79.19
75188;BME280;63762;51.334;22.108;2022-11-15T22:04:29;101233.21;;;7.07;79.44
75188;BME280;63762;51.334;22.108;2022-11-15T22:14:36;101216.05;;;6.96;79.14
75188;BME280;63762;51.334;22.108;2022-11-15T22:24:43;101210.52;;;6.99;79.71
75188;BME280;63762;51.334;22.108;2022-11-15T22:34:51;101221.05;;;7.02;79.48
75188;BME280;63762;51.334;22.108;2022-11-15T22:44:58;101209.65;;;6.98;79.84
75188;BME280;63762;51.334;22.108;2022-11-15T22:55:05;101195.16;;;6.86;80.26
75188;BME280;63762;51.334;22.108;2022-11-15T23:05:12;101196.72;;;6.90;80.15
75188;BME280;63762;51.334;22.108;2022-11-15T23:15:19;101185.77;;;6.79;80.56
75188;BME280;63762;51.334;22.108;2022-11-15T23:25:26;101168.77;;;6.80;80.18
75188;BME280;63762;51.334;22.108;2022-11-15T23:35:34;101155.75;;;6.74;80.37
75188;BME280;63762;51.334;22.108;2022-11-15T23:45:40;101146.02;;;6.73;79.76
75188;BME280;63762;51.334;22.108;2022-11-15T23:55:59;101134.89;;;6.81;79.53
